Forrest Airport
YFRT : now visible

Airfield :











YOU CAN JOIN US ON...

 
LOGIN :

Register | Disclaimer

   EN    FR    IT 

 









Legend :    VFR   Marginal VFR   IFR   Intensive IFR   Very Intensive IFR
Visi :
Ceiling :
>= 8 km
>= 3000ft
5 to 8 km
1000 to 3000 ft
1500m to 5 km
500 to 1000 ft
800 to 1500m
200 to 500 ft
< 800m
< 200 ft
Symbols :   Thunderstorms  Fog  Heavy snow  Heavy precipitations  Wind > 20 kt






- Airport Elevation : 511 ft
- IATA code : FOS


YFRT - Forrest

CURRENT METAR :
  • 250330Z AUTO 25015KT 9999 // NCD 21/10 Q1017 RF00.0/000.0

EXPIRED METARs :
  • 250300Z AUTO 25014KT 9999 // NCD 20/11 Q1018 RF00.0/000.0
  • 250230Z AUTO 24014KT 9999 // NCD 19/10 Q1018 RF00.0/000.0
  • 250200Z AUTO 25013KT 9999 // NCD 19/11 Q1018 RF00.0/000.0
  • 250130Z AUTO 25013KT 9999 // NCD 18/11 Q1018 RF00.0/000.0
  • 250100Z AUTO 25013KT 9999 // NCD 17/11 Q1018 RF00.0/000.0
  • 250030Z AUTO 25011KT 9999 // NCD 16/11 Q1018 RF00.0/000.0

TAF TAF YFRT
Valid from the 25 at 02:00 until the 25 at 14:00 UTC


250032Z 2502/2514 23014KT CAVOK
FM251000 20010KT 9999 SCT025
YMMM FIR / Oceania



MET'MAP, your aeronautical weather chart ! - Copyright ORBIFLY December 2007 - Disclaimer

ORBIFLY MET'MAP TEAM :

Programming & Development : Alexandra Zaïnal
Original concept : Baudouin d'Aumeries
Technical & hardware support : Manuel Goepfert
Assistance : Marc-Olivier Méhu

Contact : metmap@orbifly.com




SOURCES & CREDITS :

   NOAA       Earth
Advisory